Time,TemperatureF,DewpointF,PressureIn,WindDirection,WindDirectionDegrees,WindSpeedMPH,WindSpeedGustMPH,Humidity,HourlyPrecipIn,Conditions,Clouds,dailyrainin,SoftwareType,DateUTC
2013-05-26 00:10:00,53.8,48.2,29.14,West,270,4.5,7.6,76,0.00,,,0.00,fowsr,2013-05-25 22:10:00,
2013-05-26 00:40:00,53.2,48.5,29.13,NW,315,6.9,9.8,79,0.00,,,0.00,fowsr,2013-05-25 22:40:00,
2013-05-26 01:10:00,52.9,48.4,29.13,SW,225,0.7,1.6,80,0.00,,,0.00,fowsr,2013-05-25 23:10:00,
2013-05-26 01:40:00,52.0,48.7,29.13,WNW,292,1.6,3.1,85,0.02,,,0.02,fowsr,2013-05-25 23:40:00,
2013-05-26 04:10:00,50.9,49.7,29.10,NW,315,2.2,3.1,94,0.00,,,0.05,fowsr,2013-05-26 02:10:00,
2013-05-26 04:40:00,50.5,48.9,29.10,West,270,3.1,4.5,92,0.00,,,0.05,fowsr,2013-05-26 02:40:00,
2013-05-26 05:10:00,50.4,48.5,29.10,NW,315,1.6,2.2,91,0.00,,,0.05,fowsr,2013-05-26 03:10:00,
2013-05-26 05:40:00,50.7,48.8,29.09,West,270,1.6,2.2,91,0.00,,,0.05,fowsr,2013-05-26 03:40:00,
2013-05-26 06:10:00,50.9,48.6,29.11,West,270,0.7,2.2,89,0.00,,,0.05,fowsr,2013-05-26 04:10:00,
2013-05-26 06:40:00,51.8,48.5,29.11,West,270,1.6,3.1,85,0.00,,,0.05,fowsr,2013-05-26 04:40:00,
2013-05-26 07:10:00,53.1,49.8,29.11,NW,315,1.6,3.1,85,0.00,,,0.05,fowsr,2013-05-26 05:10:00,
2013-05-26 07:40:00,54.5,49.9,29.12,West,270,3.8,6.0,80,0.00,,,0.05,fowsr,2013-05-26 05:40:00,
2013-05-26 08:10:00,59.7,52.2,29.11,NW,315,0.7,2.2,70,0.00,,,0.05,fowsr,2013-05-26 06:10:00,
2013-05-26 08:40:00,59.0,49.4,29.11,NW,315,3.1,4.5,63,0.00,,,0.05,fowsr,2013-05-26 06:40:00,
2013-05-26 09:10:00,59.5,50.9,29.11,NW,315,3.1,4.5,66,0.00,,,0.05,fowsr,2013-05-26 07:10:00,
2013-05-26 09:40:00,62.6,48.9,29.11,West,270,2.2,5.4,52,0.00,,,0.05,fowsr,2013-05-26 07:40:00,
2013-05-26 10:10:00,59.9,49.3,29.11,West,270,3.8,5.4,60,0.00,,,0.05,fowsr,2013-05-26 08:10:00,
2013-05-26 10:40:00,59.4,47.7,29.11,NNE,22,4.5,6.0,57,0.00,,,0.05,fowsr,2013-05-26 08:40:00,
2013-05-26 11:10:00,59.4,48.8,29.11,NNW,337,6.0,8.3,60,0.00,,,0.05,fowsr,2013-05-26 09:10:00,
2013-05-26 11:40:00,61.5,48.7,29.10,NW,315,6.9,9.2,54,0.00,,,0.05,fowsr,2013-05-26 09:40:00,
2013-05-26 12:10:00,62.2,47.0,29.09,NW,315,9.8,13.0,48,0.00,,,0.05,fowsr,2013-05-26 10:10:00,
2013-05-26 12:40:00,63.9,46.3,29.10,West,270,5.4,6.9,43,0.00,,,0.05,fowsr,2013-05-26 10:40:00,
2013-05-26 13:10:00,63.9,45.3,29.10,West,270,11.4,14.5,41,0.00,,,0.05,fowsr,2013-05-26 11:10:00,
2013-05-26 13:40:00,63.1,44.7,29.10,NW,315,9.8,15.2,41,0.00,,,0.05,fowsr,2013-05-26 11:40:00,
2013-05-26 14:10:00,63.0,44.5,29.10,NW,315,7.6,13.6,41,0.00,,,0.05,fowsr,2013-05-26 12:10:00,
2013-05-26 14:40:00,63.1,43.7,29.10,West,270,3.8,5.4,39,0.00,,,0.05,fowsr,2013-05-26 12:40:00,
2013-05-26 15:10:00,63.1,43.2,29.10,ENE,67,3.1,5.4,38,0.00,,,0.05,fowsr,2013-05-26 13:10:00,
2013-05-26 15:40:00,59.5,50.9,29.10,SW,225,2.2,4.5,66,0.00,,,0.05,fowsr,2013-05-26 13:40:00,
2013-05-26 16:10:00,56.7,50.7,29.11,East,90,3.1,6.9,75,0.00,,,0.05,fowsr,2013-05-26 14:10:00,
2013-05-26 16:40:00,57.6,51.0,29.12,SSE,157,3.1,4.5,73,0.00,,,0.05,fowsr,2013-05-26 14:40:00,
2013-05-26 17:10:00,56.1,50.2,29.12,SE,135,3.1,4.5,75,0.00,,,0.05,fowsr,2013-05-26 15:10:00,
2013-05-26 17:40:00,57.7,51.2,29.12,South,180,3.8,6.0,73,0.00,,,0.05,fowsr,2013-05-26 15:40:00,
2013-05-26 18:10:00,58.6,51.8,29.12,SE,135,3.8,6.0,72,0.00,,,0.05,fowsr,2013-05-26 16:10:00,
2013-05-26 18:40:00,60.6,52.2,29.12,SE,135,0.7,1.6,67,0.00,,,0.05,fowsr,2013-05-26 16:40:00,
2013-05-26 19:10:00,61.0,42.8,29.13,West,270,4.5,6.0,41,0.00,,,0.05,fowsr,2013-05-26 17:10:00,
2013-05-26 19:40:00,60.8,42.6,29.13,West,270,7.6,10.7,41,0.00,,,0.05,fowsr,2013-05-26 17:40:00,
2013-05-26 20:10:00,57.9,42.3,29.13,NW,315,1.6,3.8,46,0.00,,,0.05,fowsr,2013-05-26 18:10:00,
2013-05-26 20:40:00,56.7,42.3,29.14,NW,315,6.0,9.8,49,0.00,,,0.05,fowsr,2013-05-26 18:40:00,
2013-05-26 21:10:00,55.2,41.8,29.15,West,270,4.5,6.9,51,0.00,,,0.05,fowsr,2013-05-26 19:10:00,
2013-05-26 21:40:00,54.5,41.9,29.16,West,270,7.6,12.1,53,0.00,,,0.05,fowsr,2013-05-26 19:40:00,
2013-05-26 22:10:00,53.4,41.2,29.16,NW,315,3.1,4.5,54,0.00,,,0.05,fowsr,2013-05-26 20:10:00,
2013-05-26 22:40:00,52.2,41.1,29.18,NW,315,3.8,6.9,57,0.00,,,0.05,fowsr,2013-05-26 20:40:00,
2013-05-26 23:10:00,50.9,41.2,29.18,NW,315,6.0,7.6,61,0.00,,,0.05,fowsr,2013-05-26 21:10:00,
2013-05-26 23:40:00,50.9,40.9,29.18,NW,315,6.0,9.2,60,0.00,,,0.05,fowsr,2013-05-26 21:40:00,